sensor_id;sensor_type;location;lat;lon;timestamp;temperature;humidity
11454;DHT22;5783;55.174;61.310;2023-03-23T00:01:51;20.20;30.30
11454;DHT22;5783;55.174;61.310;2023-03-23T00:04:20;20.20;30.40
11454;DHT22;5783;55.174;61.310;2023-03-23T00:06:51;20.30;30.40
11454;DHT22;5783;55.174;61.310;2023-03-23T00:09:20;20.30;30.30
11454;DHT22;5783;55.174;61.310;2023-03-23T00:11:51;20.30;30.30
11454;DHT22;5783;55.174;61.310;2023-03-23T00:14:21;20.20;30.30
11454;DHT22;5783;55.174;61.310;2023-03-23T00:16:51;20.20;30.30
11454;DHT22;5783;55.174;61.310;2023-03-23T00:19:21;20.20;30.30
11454;DHT22;5783;55.174;61.310;2023-03-23T00:21:50;20.20;30.30
11454;DHT22;5783;55.174;61.310;2023-03-23T00:24:20;20.10;30.20
11454;DHT22;5783;55.174;61.310;2023-03-23T00:26:49;20.10;30.20
11454;DHT22;5783;55.174;61.310;2023-03-23T00:29:22;20.10;30.20
11454;DHT22;5783;55.174;61.310;2023-03-23T00:31:52;20.20;30.30
11454;DHT22;5783;55.174;61.310;2023-03-23T00:34:23;20.20;30.20
11454;DHT22;5783;55.174;61.310;2023-03-23T00:36:55;20.20;30.20
11454;DHT22;5783;55.174;61.310;2023-03-23T00:39:26;20.20;30.20
11454;DHT22;5783;55.174;61.310;2023-03-23T00:41:56;20.20;30.10
11454;DHT22;5783;55.174;61.310;2023-03-23T00:44:30;20.20;30.20
11454;DHT22;5783;55.174;61.310;2023-03-23T00:47:02;20.20;30.20
11454;DHT22;5783;55.174;61.310;2023-03-23T00:49:31;20.20;30.20
11454;DHT22;5783;55.174;61.310;2023-03-23T00:52:02;20.10;30.20
11454;DHT22;5783;55.174;61.310;2023-03-23T00:54:31;20.20;30.20
11454;DHT22;5783;55.174;61.310;2023-03-23T00:57:01;20.20;30.30
11454;DHT22;5783;55.174;61.310;2023-03-23T00:59:31;20.20;30.20
11454;DHT22;5783;55.174;61.310;2023-03-23T01:02:00;20.20;30.20
11454;DHT22;5783;55.174;61.310;2023-03-23T01:04:29;20.20;30.10
11454;DHT22;5783;55.174;61.310;2023-03-23T01:06:58;20.20;30.20
11454;DHT22;5783;55.174;61.310;2023-03-23T01:09:27;20.20;30.10
11454;DHT22;5783;55.174;61.310;2023-03-23T01:11:56;20.20;30.10
11454;DHT22;5783;55.174;61.310;2023-03-23T01:14:26;20.20;30.10
11454;DHT22;5783;55.174;61.310;2023-03-23T01:16:55;20.20;30.10
11454;DHT22;5783;55.174;61.310;2023-03-23T01:19:24;20.20;30.10
11454;DHT22;5783;55.174;61.310;2023-03-23T01:21:53;20.20;30.10
11454;DHT22;5783;55.174;61.310;2023-03-23T01:24:22;20.20;30.10
11454;DHT22;5783;55.174;61.310;2023-03-23T01:26:51;20.20;30.00
11454;DHT22;5783;55.174;61.310;2023-03-23T01:29:21;20.20;30.00
11454;DHT22;5783;55.174;61.310;2023-03-23T01:31:50;20.20;30.00
11454;DHT22;5783;55.174;61.310;2023-03-23T01:34:19;20.20;30.00
11454;DHT22;5783;55.174;61.310;2023-03-23T01:36:48;20.20;30.00
11454;DHT22;5783;55.174;61.310;2023-03-23T01:39:17;20.10;30.00
11454;DHT22;5783;55.174;61.310;2023-03-23T01:41:46;20.10;30.00
11454;DHT22;5783;55.174;61.310;2023-03-23T01:47:06;20.10;30.00
11454;DHT22;5783;55.174;61.310;2023-03-23T01:49:37;20.10;30.00
11454;DHT22;5783;55.174;61.310;2023-03-23T01:52:27;20.10;30.00
11454;DHT22;5783;55.174;61.310;2023-03-23T01:54:57;20.10;30.00
11454;DHT22;5783;55.174;61.310;2023-03-23T01:57:27;20.20;30.10
11454;DHT22;5783;55.174;61.310;2023-03-23T01:59:58;20.10;30.10
11454;DHT22;5783;55.174;61.310;2023-03-23T02:02:30;20.10;30.10
11454;DHT22;5783;55.174;61.310;2023-03-23T02:05:03;20.10;30.10
11454;DHT22;5783;55.174;61.310;2023-03-23T02:07:33;20.10;30.10
11454;DHT22;5783;55.174;61.310;2023-03-23T02:10:03;20.00;30.10
11454;DHT22;5783;55.174;61.310;2023-03-23T02:12:34;20.00;30.20
11454;DHT22;5783;55.174;61.310;2023-03-23T02:15:03;20.00;30.20
11454;DHT22;5783;55.174;61.310;2023-03-23T02:18:08;20.00;30.20
11454;DHT22;5783;55.174;61.310;2023-03-23T02:41:12;19.90;30.20
11454;DHT22;5783;55.174;61.310;2023-03-23T02:43:44;19.90;30.20
11454;DHT22;5783;55.174;61.310;2023-03-23T02:46:14;19.90;30.60
11454;DHT22;5783;55.174;61.310;2023-03-23T02:48:45;19.90;30.10
11454;DHT22;5783;55.174;61.310;2023-03-23T02:51:17;19.90;30.10
11454;DHT22;5783;55.174;61.310;2023-03-23T02:53:48;19.90;30.10
11454;DHT22;5783;55.174;61.310;2023-03-23T02:56:22;20.00;30.30
11454;DHT22;5783;55.174;61.310;2023-03-23T02:58:51;20.00;30.20
11454;DHT22;5783;55.174;61.310;2023-03-23T03:02:12;20.00;30.20
11454;DHT22;5783;55.174;61.310;2023-03-23T03:04:31;20.00;30.30
11454;DHT22;5783;55.174;61.310;2023-03-23T03:21:54;20.00;30.30
11454;DHT22;5783;55.174;61.310;2023-03-23T03:24:27;20.00;30.20
11454;DHT22;5783;55.174;61.310;2023-03-23T03:26:59;20.00;30.10
11454;DHT22;5783;55.174;61.310;2023-03-23T03:32:23;20.10;30.00
11454;DHT22;5783;55.174;61.310;2023-03-23T03:34:54;20.00;30.00
11454;DHT22;5783;55.174;61.310;2023-03-23T03:37:23;20.00;30.00
11454;DHT22;5783;55.174;61.310;2023-03-23T03:39:52;20.00;30.00
11454;DHT22;5783;55.174;61.310;2023-03-23T03:42:22;20.00;30.00
11454;DHT22;5783;55.174;61.310;2023-03-23T03:44:51;20.00;30.00
11454;DHT22;5783;55.174;61.310;2023-03-23T03:47:20;19.90;30.00
11454;DHT22;5783;55.174;61.310;2023-03-23T03:49:50;20.00;30.00
11454;DHT22;5783;55.174;61.310;2023-03-23T03:52:19;19.90;30.00
11454;DHT22;5783;55.174;61.310;2023-03-23T03:54:48;19.90;30.00
11454;DHT22;5783;55.174;61.310;2023-03-23T03:57:17;19.90;30.10
11454;DHT22;5783;55.174;61.310;2023-03-23T03:59:46;19.90;30.20
11454;DHT22;5783;55.174;61.310;2023-03-23T04:02:16;20.00;30.20
11454;DHT22;5783;55.174;61.310;2023-03-23T04:05:06;20.00;30.20
11454;DHT22;5783;55.174;61.310;2023-03-23T04:07:37;20.00;30.20
11454;DHT22;5783;55.174;61.310;2023-03-23T04:10:09;20.00;30.20
11454;DHT22;5783;55.174;61.310;2023-03-23T04:12:39;20.00;30.40
11454;DHT22;5783;55.174;61.310;2023-03-23T04:15:09;20.00;30.40
11454;DHT22;5783;55.174;61.310;2023-03-23T04:17:39;20.00;30.30
11454;DHT22;5783;55.174;61.310;2023-03-23T04:20:10;20.00;30.40
11454;DHT22;5783;55.174;61.310;2023-03-23T04:22:59;20.10;30.30
11454;DHT22;5783;55.174;61.310;2023-03-23T04:25:28;20.10;30.30
11454;DHT22;5783;55.174;61.310;2023-03-23T04:27:59;20.10;30.20
11454;DHT22;5783;55.174;61.310;2023-03-23T04:30:29;20.10;30.10
11454;DHT22;5783;55.174;61.310;2023-03-23T04:32:58;20.20;30.00
11454;DHT22;5783;55.174;61.310;2023-03-23T04:35:28;20.20;30.00
11454;DHT22;5783;55.174;61.310;2023-03-23T04:37:57;20.20;29.90
11454;DHT22;5783;55.174;61.310;2023-03-23T04:40:26;20.20;29.90
11454;DHT22;5783;55.174;61.310;2023-03-23T04:42:56;20.30;29.80
11454;DHT22;5783;55.174;61.310;2023-03-23T04:45:26;20.40;29.70
11454;DHT22;5783;55.174;61.310;2023-03-23T04:47:55;20.40;28.90
11454;DHT22;5783;55.174;61.310;2023-03-23T04:50:57;20.40;28.20
11454;DHT22;5783;55.174;61.310;2023-03-23T04:52:59;20.20;27.90
11454;DHT22;5783;55.174;61.310;2023-03-23T04:55:49;20.20;28.50
11454;DHT22;5783;55.174;61.310;2023-03-23T04:58:18;20.30;28.70
11454;DHT22;5783;55.174;61.310;2023-03-23T05:00:48;20.50;28.70
11454;DHT22;5783;55.174;61.310;2023-03-23T05:03:18;20.70;28.80
11454;DHT22;5783;55.174;61.310;2023-03-23T05:05:48;20.70;28.20
11454;DHT22;5783;55.174;61.310;2023-03-23T05:08:36;20.70;27.50
11454;DHT22;5783;55.174;61.310;2023-03-23T05:11:06;20.70;27.70
11454;DHT22;5783;55.174;61.310;2023-03-23T05:13:35;20.70;27.80
11454;DHT22;5783;55.174;61.310;2023-03-23T05:16:06;20.70;27.80
11454;DHT22;5783;55.174;61.310;2023-03-23T05:18:35;20.70;28.30
11454;DHT22;5783;55.174;61.310;2023-03-23T05:21:05;20.60;27.20
11454;DHT22;5783;55.174;61.310;2023-03-23T05:23:34;20.50;27.40
11454;DHT22;5783;55.174;61.310;2023-03-23T05:26:04;20.50;27.40
11454;DHT22;5783;55.174;61.310;2023-03-23T05:28:33;20.30;26.80
11454;DHT22;5783;55.174;61.310;2023-03-23T05:31:02;20.20;26.90
11454;DHT22;5783;55.174;61.310;2023-03-23T05:33:32;20.10;28.10
11454;DHT22;5783;55.174;61.310;2023-03-23T05:36:01;20.00;26.60
11454;DHT22;5783;55.174;61.310;2023-03-23T05:38:30;20.00;26.70
11454;DHT22;5783;55.174;61.310;2023-03-23T05:41:00;20.00;27.10
11454;DHT22;5783;55.174;61.310;2023-03-23T05:43:29;20.00;29.20
11454;DHT22;5783;55.174;61.310;2023-03-23T05:45:58;20.10;35.70
11454;DHT22;5783;55.174;61.310;2023-03-23T05:48:27;20.20;28.10
11454;DHT22;5783;55.174;61.310;2023-03-23T05:50:57;20.20;27.20
11454;DHT22;5783;55.174;61.310;2023-03-23T05:53:26;20.40;27.10
11454;DHT22;5783;55.174;61.310;2023-03-23T05:56:16;20.50;27.10
11454;DHT22;5783;55.174;61.310;2023-03-23T05:58:46;20.50;26.50
11454;DHT22;5783;55.174;61.310;2023-03-23T06:01:15;20.50;26.20
11454;DHT22;5783;55.174;61.310;2023-03-23T06:03:44;20.40;26.60
11454;DHT22;5783;55.174;61.310;2023-03-23T06:06:14;20.40;27.00
11454;DHT22;5783;55.174;61.310;2023-03-23T06:08:44;20.50;26.20
11454;DHT22;5783;55.174;61.310;2023-03-23T06:11:15;20.50;26.80
11454;DHT22;5783;55.174;61.310;2023-03-23T06:13:45;20.70;26.60
11454;DHT22;5783;55.174;61.310;2023-03-23T06:16:14;20.80;26.50
11454;DHT22;5783;55.174;61.310;2023-03-23T06:18:43;20.90;28.00
11454;DHT22;5783;55.174;61.310;2023-03-23T06:21:13;20.80;31.50
11454;DHT22;5783;55.174;61.310;2023-03-23T06:23:44;20.80;28.40
11454;DHT22;5783;55.174;61.310;2023-03-23T06:26:15;20.80;26.70
11454;DHT22;5783;55.174;61.310;2023-03-23T06:28:46;20.90;26.90
11454;DHT22;5783;55.174;61.310;2023-03-23T06:31:15;20.90;26.20
11454;DHT22;5783;55.174;61.310;2023-03-23T06:33:46;20.80;26.60
11454;DHT22;5783;55.174;61.310;2023-03-23T06:36:18;20.80;26.70
11454;DHT22;5783;55.174;61.310;2023-03-23T06:38:47;20.90;26.90
11454;DHT22;5783;55.174;61.310;2023-03-23T06:41:16;20.90;26.60
11454;DHT22;5783;55.174;61.310;2023-03-23T06:43:48;20.80;26.30
11454;DHT22;5783;55.174;61.310;2023-03-23T06:46:17;20.80;26.60
11454;DHT22;5783;55.174;61.310;2023-03-23T06:48:47;20.60;26.30
11454;DHT22;5783;55.174;61.310;2023-03-23T06:51:17;20.60;26.70
11454;DHT22;5783;55.174;61.310;2023-03-23T06:53:47;20.70;26.80
11454;DHT22;5783;55.174;61.310;2023-03-23T06:56:16;20.70;25.60
11454;DHT22;5783;55.174;61.310;2023-03-23T06:58:45;20.80;26.00
11454;DHT22;5783;55.174;61.310;2023-03-23T07:01:14;20.70;25.60
11454;DHT22;5783;55.174;61.310;2023-03-23T07:03:44;20.60;25.40
11454;DHT22;5783;55.174;61.310;2023-03-23T07:06:13;20.50;25.50
11454;DHT22;5783;55.174;61.310;2023-03-23T07:08:42;20.50;26.20
11454;DHT22;5783;55.174;61.310;2023-03-23T07:11:12;20.60;26.00
11454;DHT22;5783;55.174;61.310;2023-03-23T07:13:41;20.70;25.90
11454;DHT22;5783;55.174;61.310;2023-03-23T07:16:10;20.80;25.90
11454;DHT22;5783;55.174;61.310;2023-03-23T07:18:39;20.90;25.80
11454;DHT22;5783;55.174;61.310;2023-03-23T07:21:08;21.00;28.60
11454;DHT22;5783;55.174;61.310;2023-03-23T07:23:38;21.20;40.30
11454;DHT22;5783;55.174;61.310;2023-03-23T07:26:07;21.30;24.90
11454;DHT22;5783;55.174;61.310;2023-03-23T07:28:36;21.30;25.20
11454;DHT22;5783;55.174;61.310;2023-03-23T07:31:07;21.30;24.70
11454;DHT22;5783;55.174;61.310;2023-03-23T07:33:36;21.20;24.90
11454;DHT22;5783;55.174;61.310;2023-03-23T07:36:05;21.30;24.80
11454;DHT22;5783;55.174;61.310;2023-03-23T07:38:35;21.20;24.80
11454;DHT22;5783;55.174;61.310;2023-03-23T07:41:04;21.20;24.20
11454;DHT22;5783;55.174;61.310;2023-03-23T07:43:34;21.00;24.20
11454;DHT22;5783;55.174;61.310;2023-03-23T07:46:03;20.90;24.20
11454;DHT22;5783;55.174;61.310;2023-03-23T07:48:32;20.90;24.10
11454;DHT22;5783;55.174;61.310;2023-03-23T07:51:01;20.80;24.20
11454;DHT22;5783;55.174;61.310;2023-03-23T07:53:30;20.70;25.00
11454;DHT22;5783;55.174;61.310;2023-03-23T07:56:00;20.80;24.90
11454;DHT22;5783;55.174;61.310;2023-03-23T07:58:30;20.90;24.90
11454;DHT22;5783;55.174;61.310;2023-03-23T08:00:59;21.00;24.10
11454;DHT22;5783;55.174;61.310;2023-03-23T08:03:28;21.00;24.20
11454;DHT22;5783;55.174;61.310;2023-03-23T08:05:58;20.90;23.90
11454;DHT22;5783;55.174;61.310;2023-03-23T08:08:28;20.80;24.60
11454;DHT22;5783;55.174;61.310;2023-03-23T08:10:58;20.80;24.70
11454;DHT22;5783;55.174;61.310;2023-03-23T08:13:28;20.70;24.40
11454;DHT22;5783;55.174;61.310;2023-03-23T08:15:57;20.70;25.10
11454;DHT22;5783;55.174;61.310;2023-03-23T08:18:28;20.80;25.10
11454;DHT22;5783;55.174;61.310;2023-03-23T08:20:58;20.80;25.30
11454;DHT22;5783;55.174;61.310;2023-03-23T08:23:27;21.00;24.70
11454;DHT22;5783;55.174;61.310;2023-03-23T08:25:56;21.00;24.70
11454;DHT22;5783;55.174;61.310;2023-03-23T08:28:26;20.90;24.70
11454;DHT22;5783;55.174;61.310;2023-03-23T08:30:55;20.90;24.20
11454;DHT22;5783;55.174;61.310;2023-03-23T08:33:24;20.90;24.00
11454;DHT22;5783;55.174;61.310;2023-03-23T08:35:57;20.80;23.80
11454;DHT22;5783;55.174;61.310;2023-03-23T08:38:28;20.80;24.30
11454;DHT22;5783;55.174;61.310;2023-03-23T08:41:16;20.70;24.40
11454;DHT22;5783;55.174;61.310;2023-03-23T08:43:46;20.70;25.00
11454;DHT22;5783;55.174;61.310;2023-03-23T08:46:15;20.80;24.90
11454;DHT22;5783;55.174;61.310;2023-03-23T08:48:46;20.80;24.80
11454;DHT22;5783;55.174;61.310;2023-03-23T08:51:15;20.80;24.70
11454;DHT22;5783;55.174;61.310;2023-03-23T08:53:44;20.90;24.50
11454;DHT22;5783;55.174;61.310;2023-03-23T08:56:14;21.00;24.60
11454;DHT22;5783;55.174;61.310;2023-03-23T08:58:43;21.10;24.60
11454;DHT22;5783;55.174;61.310;2023-03-23T09:01:14;21.20;24.40
11454;DHT22;5783;55.174;61.310;2023-03-23T09:03:43;21.30;24.80
11454;DHT22;5783;55.174;61.310;2023-03-23T09:06:13;21.40;25.20
11454;DHT22;5783;55.174;61.310;2023-03-23T09:08:42;21.50;25.20
11454;DHT22;5783;55.174;61.310;2023-03-23T09:11:11;21.50;24.60
11454;DHT22;5783;55.174;61.310;2023-03-23T09:13:41;21.40;24.60
11454;DHT22;5783;55.174;61.310;2023-03-23T09:16:10;21.40;25.00
11454;DHT22;5783;55.174;61.310;2023-03-23T09:18:40;21.40;25.00
11454;DHT22;5783;55.174;61.310;2023-03-23T09:21:09;21.60;25.10
11454;DHT22;5783;55.174;61.310;2023-03-23T09:23:39;21.70;24.70
11454;DHT22;5783;55.174;61.310;2023-03-23T09:26:10;21.70;24.90
11454;DHT22;5783;55.174;61.310;2023-03-23T09:28:39;21.80;25.10
11454;DHT22;5783;55.174;61.310;2023-03-23T09:31:10;21.90;24.50
11454;DHT22;5783;55.174;61.310;2023-03-23T09:33:39;22.00;24.50
11454;DHT22;5783;55.174;61.310;2023-03-23T09:36:08;22.00;24.20
11454;DHT22;5783;55.174;61.310;2023-03-23T09:38:39;22.10;24.40
11454;DHT22;5783;55.174;61.310;2023-03-23T09:53:32;22.10;23.20
11454;DHT22;5783;55.174;61.310;2023-03-23T09:56:05;22.00;22.90
11454;DHT22;5783;55.174;61.310;2023-03-23T10:01:45;21.90;23.00
11454;DHT22;5783;55.174;61.310;2023-03-23T10:07:26;21.60;22.50
11454;DHT22;5783;55.174;61.310;2023-03-23T10:09:58;21.40;22.50
11454;DHT22;5783;55.174;61.310;2023-03-23T10:15:23;21.30;23.00
11454;DHT22;5783;55.174;61.310;2023-03-23T10:32:36;21.50;23.40
11454;DHT22;5783;55.174;61.310;2023-03-23T10:34:59;21.50;23.10
11454;DHT22;5783;55.174;61.310;2023-03-23T10:37:50;21.40;23.10
11454;DHT22;5783;55.174;61.310;2023-03-23T10:40:22;21.40;23.20
11454;DHT22;5783;55.174;61.310;2023-03-23T10:42:52;21.30;23.20
11454;DHT22;5783;55.174;61.310;2023-03-23T10:45:25;21.30;23.20
11454;DHT22;5783;55.174;61.310;2023-03-23T10:50:49;21.30;23.30
11454;DHT22;5783;55.174;61.310;2023-03-23T10:53:42;21.30;23.30
11454;DHT22;5783;55.174;61.310;2023-03-23T10:59:39;21.40;23.40
11454;DHT22;5783;55.174;61.310;2023-03-23T11:02:14;21.50;23.60
11454;DHT22;5783;55.174;61.310;2023-03-23T11:05:04;21.60;23.30
11454;DHT22;5783;55.174;61.310;2023-03-23T11:07:35;21.70;23.20
11454;DHT22;5783;55.174;61.310;2023-03-23T11:10:26;21.70;23.00
11454;DHT22;5783;55.174;61.310;2023-03-23T11:13:15;21.70;23.10
11454;DHT22;5783;55.174;61.310;2023-03-23T11:15:48;21.60;23.00
11454;DHT22;5783;55.174;61.310;2023-03-23T11:18:39;21.50;23.20
11454;DHT22;5783;55.174;61.310;2023-03-23T11:21:11;21.40;23.50
11454;DHT22;5783;55.174;61.310;2023-03-23T11:23:43;21.30;23.80
11454;DHT22;5783;55.174;61.310;2023-03-23T11:26:33;21.30;23.80
11454;DHT22;5783;55.174;61.310;2023-03-23T11:29:24;21.30;24.20
11454;DHT22;5783;55.174;61.310;2023-03-23T11:35:22;21.40;24.00
11454;DHT22;5783;55.174;61.310;2023-03-23T11:37:57;21.50;23.80
11454;DHT22;5783;55.174;61.310;2023-03-23T11:40:30;21.50;23.20
11454;DHT22;5783;55.174;61.310;2023-03-23T11:43:21;21.50;24.80
11454;DHT22;5783;55.174;61.310;2023-03-23T11:49:01;21.70;23.90
11454;DHT22;5783;55.174;61.310;2023-03-23T11:57:32;21.90;23.20
11454;DHT22;5783;55.174;61.310;2023-03-23T12:00:01;22.00;23.20
11454;DHT22;5783;55.174;61.310;2023-03-23T12:26:52;21.60;23.60
11454;DHT22;5783;55.174;61.310;2023-03-23T12:29:45;21.60;23.60
11454;DHT22;5783;55.174;61.310;2023-03-23T12:33:09;21.60;23.60
11454;DHT22;5783;55.174;61.310;2023-03-23T12:35:27;21.60;23.70
11454;DHT22;5783;55.174;61.310;2023-03-23T12:44:12;21.40;23.30
11454;DHT22;5783;55.174;61.310;2023-03-23T12:49:54;21.40;23.70
11454;DHT22;5783;55.174;61.310;2023-03-23T12:58:25;21.50;23.50
11454;DHT22;5783;55.174;61.310;2023-03-23T13:04:24;21.40;23.60
11454;DHT22;5783;55.174;61.310;2023-03-23T13:06:52;21.40;23.50
11454;DHT22;5783;55.174;61.310;2023-03-23T13:12:32;21.30;23.60
11454;DHT22;5783;55.174;61.310;2023-03-23T13:15:11;21.20;23.50
11454;DHT22;5783;55.174;61.310;2023-03-23T13:26:26;21.00;23.70
11454;DHT22;5783;55.174;61.310;2023-03-23T13:34:56;20.90;26.20
11454;DHT22;5783;55.174;61.310;2023-03-23T13:37:26;20.90;23.60
11454;DHT22;5783;55.174;61.310;2023-03-23T13:43:04;20.90;23.80
11454;DHT22;5783;55.174;61.310;2023-03-23T13:45:53;20.90;23.70
11454;DHT22;5783;55.174;61.310;2023-03-23T13:48:25;20.90;23.80
11454;DHT22;5783;55.174;61.310;2023-03-23T13:57:36;20.90;23.90
11454;DHT22;5783;55.174;61.310;2023-03-23T14:03:47;20.90;23.90
11454;DHT22;5783;55.174;61.310;2023-03-23T14:11:29;21.00;23.80
11454;DHT22;5783;55.174;61.310;2023-03-23T14:14:04;21.10;23.90
11454;DHT22;5783;55.174;61.310;2023-03-23T14:16:54;21.10;23.80
11454;DHT22;5783;55.174;61.310;2023-03-23T14:22:19;21.20;23.80
11454;DHT22;5783;55.174;61.310;2023-03-23T14:24:49;21.20;23.80
11454;DHT22;5783;55.174;61.310;2023-03-23T14:27:39;21.20;23.80
11454;DHT22;5783;55.174;61.310;2023-03-23T14:30:34;21.30;23.70
11454;DHT22;5783;55.174;61.310;2023-03-23T14:33:19;21.30;23.70
11454;DHT22;5783;55.174;61.310;2023-03-23T14:35:49;21.40;23.60
11454;DHT22;5783;55.174;61.310;2023-03-23T14:38:20;21.40;23.60
11454;DHT22;5783;55.174;61.310;2023-03-23T14:40:51;21.40;23.30
11454;DHT22;5783;55.174;61.310;2023-03-23T14:43:22;21.50;23.20
11454;DHT22;5783;55.174;61.310;2023-03-23T14:45:54;21.40;23.10
11454;DHT22;5783;55.174;61.310;2023-03-23T14:48:24;21.40;23.10
11454;DHT22;5783;55.174;61.310;2023-03-23T14:54:07;21.30;23.10
11454;DHT22;5783;55.174;61.310;2023-03-23T14:56:36;21.10;23.30
11454;DHT22;5783;55.174;61.310;2023-03-23T14:59:06;20.90;23.30
11454;DHT22;5783;55.174;61.310;2023-03-23T15:01:37;20.90;23.40
11454;DHT22;5783;55.174;61.310;2023-03-23T15:04:27;20.80;23.50
11454;DHT22;5783;55.174;61.310;2023-03-23T15:06:59;20.70;23.60
11454;DHT22;5783;55.174;61.310;2023-03-23T15:09:29;20.60;23.70
11454;DHT22;5783;55.174;61.310;2023-03-23T15:12:36;20.60;24.00
11454;DHT22;5783;55.174;61.310;2023-03-23T15:17:47;20.50;23.90
11454;DHT22;5783;55.174;61.310;2023-03-23T15:23:44;20.40;24.00
11454;DHT22;5783;55.174;61.310;2023-03-23T15:29:23;20.30;24.00
11454;DHT22;5783;55.174;61.310;2023-03-23T15:32:12;20.20;24.40
11454;DHT22;5783;55.174;61.310;2023-03-23T15:34:41;20.20;24.60
11454;DHT22;5783;55.174;61.310;2023-03-23T15:37:31;20.20;24.20
11454;DHT22;5783;55.174;61.310;2023-03-23T15:40:01;20.20;24.90
11454;DHT22;5783;55.174;61.310;2023-03-23T15:42:33;20.20;25.60
11454;DHT22;5783;55.174;61.310;2023-03-23T15:48:12;20.20;25.90
11454;DHT22;5783;55.174;61.310;2023-03-23T15:50:41;20.20;26.10
11454;DHT22;5783;55.174;61.310;2023-03-23T15:53:32;20.20;26.30
11454;DHT22;5783;55.174;61.310;2023-03-23T15:56:05;20.20;26.40
11454;DHT22;5783;55.174;61.310;2023-03-23T15:58:36;20.20;26.50
11454;DHT22;5783;55.174;61.310;2023-03-23T16:01:26;20.20;26.70
11454;DHT22;5783;55.174;61.310;2023-03-23T16:03:58;20.20;26.70
11454;DHT22;5783;55.174;61.310;2023-03-23T16:06:31;20.20;26.70
11454;DHT22;5783;55.174;61.310;2023-03-23T16:09:01;20.20;26.90
11454;DHT22;5783;55.174;61.310;2023-03-23T16:11:31;20.20;26.90
11454;DHT22;5783;55.174;61.310;2023-03-23T16:14:01;20.20;27.00
11454;DHT22;5783;55.174;61.310;2023-03-23T16:19:20;20.20;26.80
11454;DHT22;5783;55.174;61.310;2023-03-23T16:21:49;20.20;27.10
11454;DHT22;5783;55.174;61.310;2023-03-23T16:24:19;20.20;27.00
11454;DHT22;5783;55.174;61.310;2023-03-23T16:26:48;20.10;27.00
11454;DHT22;5783;55.174;61.310;2023-03-23T16:29:17;20.10;27.10
11454;DHT22;5783;55.174;61.310;2023-03-23T16:31:46;20.10;27.10
11454;DHT22;5783;55.174;61.310;2023-03-23T16:34:16;20.10;27.10
11454;DHT22;5783;55.174;61.310;2023-03-23T16:36:45;20.10;27.10
11454;DHT22;5783;55.174;61.310;2023-03-23T16:39:14;20.00;27.20
11454;DHT22;5783;55.174;61.310;2023-03-23T16:41:44;20.00;27.20
11454;DHT22;5783;55.174;61.310;2023-03-23T16:44:13;20.00;27.40
11454;DHT22;5783;55.174;61.310;2023-03-23T16:46:43;20.00;27.50
11454;DHT22;5783;55.174;61.310;2023-03-23T16:49:12;20.00;27.80
11454;DHT22;5783;55.174;61.310;2023-03-23T16:51:41;20.00;27.90
11454;DHT22;5783;55.174;61.310;2023-03-23T16:54:10;20.00;28.10
11454;DHT22;5783;55.174;61.310;2023-03-23T16:56:39;20.00;28.10
11454;DHT22;5783;55.174;61.310;2023-03-23T16:59:10;20.00;28.20
11454;DHT22;5783;55.174;61.310;2023-03-23T17:01:39;20.00;28.30
11454;DHT22;5783;55.174;61.310;2023-03-23T17:04:09;20.00;28.30
11454;DHT22;5783;55.174;61.310;2023-03-23T17:06:38;20.00;28.40
11454;DHT22;5783;55.174;61.310;2023-03-23T17:09:08;19.90;28.50
11454;DHT22;5783;55.174;61.310;2023-03-23T17:11:37;19.90;28.60
11454;DHT22;5783;55.174;61.310;2023-03-23T17:14:06;19.90;28.80
11454;DHT22;5783;55.174;61.310;2023-03-23T17:16:35;19.90;28.80
11454;DHT22;5783;55.174;61.310;2023-03-23T17:19:05;19.90;28.80
11454;DHT22;5783;55.174;61.310;2023-03-23T17:21:35;20.00;28.80
11454;DHT22;5783;55.174;61.310;2023-03-23T17:24:04;20.00;28.80
11454;DHT22;5783;55.174;61.310;2023-03-23T17:26:33;20.00;28.80
11454;DHT22;5783;55.174;61.310;2023-03-23T17:29:03;20.00;28.70
11454;DHT22;5783;55.174;61.310;2023-03-23T17:31:32;20.00;28.80
11454;DHT22;5783;55.174;61.310;2023-03-23T17:34:01;20.00;28.70
11454;DHT22;5783;55.174;61.310;2023-03-23T17:36:31;20.00;28.70
11454;DHT22;5783;55.174;61.310;2023-03-23T17:39:00;20.00;28.70
11454;DHT22;5783;55.174;61.310;2023-03-23T17:41:30;20.00;28.70
11454;DHT22;5783;55.174;61.310;2023-03-23T17:43:59;20.00;28.80
11454;DHT22;5783;55.174;61.310;2023-03-23T17:46:28;20.00;28.90
11454;DHT22;5783;55.174;61.310;2023-03-23T17:48:57;20.00;28.80
11454;DHT22;5783;55.174;61.310;2023-03-23T17:51:26;20.00;29.10
11454;DHT22;5783;55.174;61.310;2023-03-23T17:53:55;20.00;29.00
11454;DHT22;5783;55.174;61.310;2023-03-23T17:56:24;20.00;29.10
11454;DHT22;5783;55.174;61.310;2023-03-23T17:58:54;20.00;28.70
11454;DHT22;5783;55.174;61.310;2023-03-23T18:01:23;19.90;29.30
11454;DHT22;5783;55.174;61.310;2023-03-23T18:03:52;19.90;29.40
11454;DHT22;5783;55.174;61.310;2023-03-23T18:06:21;19.90;29.60
11454;DHT22;5783;55.174;61.310;2023-03-23T18:08:50;19.90;29.60
11454;DHT22;5783;55.174;61.310;2023-03-23T18:11:20;19.90;29.60
11454;DHT22;5783;55.174;61.310;2023-03-23T18:13:49;19.90;29.70
11454;DHT22;5783;55.174;61.310;2023-03-23T18:16:18;19.90;29.70
11454;DHT22;5783;55.174;61.310;2023-03-23T18:18:47;19.90;29.70
11454;DHT22;5783;55.174;61.310;2023-03-23T18:21:17;19.90;29.70
11454;DHT22;5783;55.174;61.310;2023-03-23T18:23:46;19.90;29.80
11454;DHT22;5783;55.174;61.310;2023-03-23T18:26:15;19.90;29.90
11454;DHT22;5783;55.174;61.310;2023-03-23T18:28:46;19.90;29.90
11454;DHT22;5783;55.174;61.310;2023-03-23T18:31:16;19.80;29.80
11454;DHT22;5783;55.174;61.310;2023-03-23T18:33:48;19.90;29.90
11454;DHT22;5783;55.174;61.310;2023-03-23T18:36:22;19.80;30.00
11454;DHT22;5783;55.174;61.310;2023-03-23T18:38:54;19.80;30.00
11454;DHT22;5783;55.174;61.310;2023-03-23T18:41:24;19.80;30.00
11454;DHT22;5783;55.174;61.310;2023-03-23T18:43:54;19.80;30.10
11454;DHT22;5783;55.174;61.310;2023-03-23T18:46:23;19.80;30.20
11454;DHT22;5783;55.174;61.310;2023-03-23T18:48:52;19.80;30.30
11454;DHT22;5783;55.174;61.310;2023-03-23T18:51:21;19.80;30.50
11454;DHT22;5783;55.174;61.310;2023-03-23T18:53:51;19.80;30.50
11454;DHT22;5783;55.174;61.310;2023-03-23T18:56:20;19.80;30.40
11454;DHT22;5783;55.174;61.310;2023-03-23T18:58:51;19.70;30.40
11454;DHT22;5783;55.174;61.310;2023-03-23T19:01:21;19.70;30.50
11454;DHT22;5783;55.174;61.310;2023-03-23T19:03:50;19.70;30.60
11454;DHT22;5783;55.174;61.310;2023-03-23T19:06:39;19.70;30.80
11454;DHT22;5783;55.174;61.310;2023-03-23T19:09:08;19.70;30.60
11454;DHT22;5783;55.174;61.310;2023-03-23T19:11:37;19.70;30.70
11454;DHT22;5783;55.174;61.310;2023-03-23T19:14:07;19.60;30.70
11454;DHT22;5783;55.174;61.310;2023-03-23T19:16:36;19.60;30.70